Date,TemperatureHighF,TemperatureAvgF,TemperatureLowF,DewpointHighF,DewpointAvgF,DewpointLowF,HumidityHigh,HumidityAvg,HumidityLow,PressureMaxIn,PressureMinIn,WindSpeedMaxMPH,WindSpeedAvgMPH,GustSpeedMaxMPH,PrecipitationSumIn
2013-1-1,49.6,45.5,40.2,42.9,34.2,15.5,94,67,29,30.07,29.89,9,1,20,0.04
2013-1-2,40.6,38.2,34.0,39.1,30.5,21.6,96,74,54,30.18,29.95,7,0,10,0.10
2013-1-3,44.2,36.8,33.8,27.6,23.3,19.0,75,59,38,30.23,30.14,6,0,10,0.00
2013-1-4,42.1,34.6,27.0,22.7,21.3,19.4,74,58,43,30.29,30.19,12,2,16,0.00
2013-1-5,50.9,40.1,33.1,33.8,23.2,19.1,77,52,33,30.38,30.20,8,1,16,0.00
2013-1-6,47.7,42.7,34.5,34.1,31.4,28.7,81,64,56,30.21,30.06,8,1,13,0.00
2013-1-7,48.4,38.0,27.8,29.9,26.4,24.1,88,64,43,30.45,30.17,7,1,13,0.00
2013-1-8,57.0,36.1,22.7,36.3,28.5,20.9,95,76,43,30.44,30.34,3,0,5,0.00
2013-1-9,62.2,46.0,29.9,50.2,39.9,27.8,96,80,57,30.44,30.35,6,0,12,0.00
2013-1-10,59.9,48.6,38.3,39.9,33.3,30.1,79,57,35,30.57,30.43,4,0,10,0.00
2013-1-11,46.0,41.7,39.6,40.6,38.4,33.9,98,89,65,30.44,30.14,1,0,5,0.08
2013-1-12,74.4,54.2,39.8,61.4,50.7,39.3,99,89,64,30.17,30.10,3,0,4,0.00
2013-1-13,72.1,60.9,51.5,61.6,56.4,50.7,99,86,65,30.11,30.01,11,1,21,0.00
2013-1-14,67.6,56.8,48.4,59.9,54.8,47.9,98,94,72,30.25,30.05,7,0,12,0.74
2013-1-15,48.3,42.1,37.1,47.8,41.4,36.6,98,97,96,30.28,30.10,1,0,4,2.31
2013-1-16,48.4,41.7,37.1,46.5,40.8,36.6,99,97,90,30.11,29.93,2,0,4,0.46
2013-1-17,47.2,38.6,32.5,45.7,37.3,31.8,99,95,87,30.16,29.99,4,0,8,0.61
2013-1-18,40.4,32.4,25.6,32.2,26.9,23.8,96,81,53,30.49,30.16,1,0,2,0.34
2013-1-19,52.2,33.3,21.4,35.6,27.1,20.0,97,81,33,30.44,30.07,6,0,13,0.27
2013-1-20,53.2,45.3,33.3,33.5,28.1,20.1,85,52,32,30.08,29.99,12,2,20,0.04
2013-1-21,50.7,39.0,27.7,26.4,20.4,8.1,84,50,29,30.08,29.85,16,3,31,0.00
2013-1-22,30.2,23.4,18.5,9.3,0.9,-2.3,46,37,28,30.24,29.97,12,3,21,0.00
2013-1-23,32.6,25.1,17.5,18.8,7.4,-1.6,68,47,28,30.30,29.99,10,1,20,0.00
2013-1-24,37.3,26.2,15.8,24.3,9.8,1.4,71,51,32,30.49,29.94,13,3,28,0.00
2013-1-25,23.0,20.3,15.6,20.5,13.6,5.4,90,76,49,30.48,30.02,6,0,10,0.00
2013-1-26,40.1,32.6,22.9,27.3,23.8,19.6,92,71,55,30.41,30.01,8,1,13,0.10
2013-1-27,37.3,28.8,18.4,26.4,22.3,15.4,90,77,63,30.56,30.41,5,0,10,0.00
2013-1-28,59.0,42.0,31.4,48.8,37.2,26.2,96,84,60,30.43,30.16,6,0,13,0.09
2013-1-29,75.5,62.3,51.8,55.6,51.2,47.3,87,68,45,30.18,30.00,8,1,13,0.00
2013-1-30,66.8,62.0,51.7,61.9,58.0,46.1,99,87,75,30.00,29.36,15,3,28,3.03
2013-1-31,54.9,38.3,34.3,47.0,25.1,17.4,83,59,47,29.92,29.40,17,5,29,0.01
2013-2-1,40.3,26.5,20.4,31.5,11.5,4.2,90,53,39,30.34,29.77,16,4,28,0.00
2013-2-2,35.5,24.9,13.8,28.1,17.0,6.7,95,73,47,30.34,29.98,4,0,6,0.00
2013-2-3,40.5,34.2,28.2,28.4,24.3,19.5,95,67,58,29.98,29.82,16,3,34,0.00
2013-2-4,40.1,31.8,25.1,25.8,19.7,14.7,75,61,50,30.10,29.91,8,1,18,0.00
2013-2-5,50.9,42.3,30.7,37.0,32.2,24.3,83,68,53,29.95,29.86,11,1,18,0.00
2013-2-6,55.4,44.2,32.9,35.2,29.1,24.0,86,57,32,30.30,29.93,7,1,13,0.00
2013-2-7,39.2,35.6,31.2,32.8,30.3,25.7,96,81,73,30.37,30.10,3,0,6,0.00
2013-2-8,51.9,38.3,32.4,40.9,32.4,25.4,97,81,52,30.10,29.82,10,2,21,0.51
2013-2-9,51.2,37.5,27.5,25.4,19.1,14.0,77,49,25,30.35,30.05,12,2,21,0.00
2013-2-10,50.0,36.2,23.2,36.2,23.6,19.2,93,64,35,30.45,30.18,5,0,12,0.14
2013-2-11,61.7,47.2,37.3,51.5,39.0,27.5,98,77,38,30.19,29.86,18,3,32,0.05
2013-2-12,58.1,48.6,40.7,29.0,24.9,21.7,55,40,26,30.06,29.91,13,2,30,0.00
2013-2-13,44.4,42.3,39.3,42.4,35.7,26.6,96,78,51,29.94,29.61,6,0,14,0.07
2013-2-14,55.1,41.2,32.8,31.8,27.5,23.9,81,60,31,30.04,29.82,8,1,17,0.00
2013-2-15,58.9,41.2,28.0,41.0,31.5,25.8,94,72,37,30.07,29.90,10,1,17,0.02
2013-2-16,38.3,34.0,27.3,30.7,21.3,13.6,74,60,45,30.01,29.85,6,1,12,0.00
2013-2-17,30.7,24.5,19.4,17.6,8.1,2.2,84,50,34,30.21,29.90,12,3,21,0.00
2013-2-18,55.7,35.6,16.5,26.0,17.3,6.6,77,49,29,30.33,30.13,7,1,13,0.00
2013-2-19,53.7,44.5,38.1,41.4,28.4,14.1,91,55,30,30.13,29.78,18,3,32,0.04
2013-2-20,44.8,35.6,29.8,16.8,12.8,9.2,49,39,25,30.15,29.94,14,4,27,0.00
2013-2-21,52.4,37.6,26.4,23.8,16.4,12.2,59,43,25,30.27,30.10,7,1,16,0.00
2013-2-22,39.3,34.1,30.0,31.4,27.9,18.9,90,79,44,30.32,30.13,3,0,6,0.04
2013-2-23,55.1,40.6,33.1,44.7,36.8,31.1,95,87,67,30.14,29.81,2,0,4,0.02
2013-2-24,56.3,46.0,37.5,41.5,29.9,21.8,96,57,31,30.07,29.80,9,2,17,0.00
2013-2-25,43.5,34.2,26.7,27.0,23.6,21.4,85,66,48,30.19,30.07,3,0,6,0.00
2013-2-26,38.7,34.2,28.5,37.9,30.9,22.6,97,88,68,30.16,29.61,4,0,8,1.38
2013-2-27,49.9,43.6,38.0,40.3,34.8,32.3,98,72,55,29.76,29.58,13,2,20,0.00
2013-2-28,43.3,38.2,36.2,33.8,27.7,24.8,78,66,52,29.83,29.69,10,3,22,0.00
2013-3-1,39.9,37.7,35.5,28.5,26.3,23.8,71,63,57,29.91,29.80,8,2,15,0.00
2013-3-2,36.9,33.6,30.0,25.2,21.4,17.9,66,61,55,29.92,29.84,8,2,13,0.00
2013-3-3,34.2,29.8,27.2,19.7,17.1,13.1,66,59,51,29.97,29.88,10,3,20,0.00
2013-3-4,50.2,34.7,26.0,20.2,14.2,10.7,64,45,23,30.08,29.96,9,2,17,0.00
2013-3-5,50.9,38.5,31.5,36.6,28.5,17.8,97,69,41,30.06,29.64,3,0,6,0.56
2013-3-6,41.3,35.8,31.5,32.3,29.4,26.9,97,78,63,30.08,29.60,11,2,21,0.63
2013-3-7,43.5,38.5,36.3,29.9,27.5,25.0,73,65,52,30.25,30.07,10,3,20,0.00
2013-3-8,50.2,41.3,34.9,27.8,25.5,21.8,70,54,39,30.34,30.20,10,2,16,0.00
2013-3-9,63.7,43.0,26.6,34.0,28.6,23.8,90,61,30,30.37,30.24,4,0,6,0.00
2013-3-10,67.4,48.1,30.6,37.4,32.4,27.4,88,58,31,30.31,30.18,4,0,7,0.00
2013-3-11,58.9,50.6,40.6,52.5,37.7,27.4,90,62,40,30.20,29.87,6,0,14,0.04
2013-3-12,55.9,51.1,40.6,53.7,42.4,30.1,98,74,46,30.00,29.73,14,2,23,0.74
2013-3-13,44.2,39.3,31.4,31.1,25.4,16.1,76,58,39,30.15,29.98,13,3,27,0.00
2013-3-14,48.3,36.6,28.0,19.6,16.8,14.5,64,46,27,30.24,30.12,10,3,20,0.00
2013-3-15,63.4,48.0,30.1,37.3,27.7,15.2,68,46,37,30.16,29.86,9,2,18,0.00
2013-3-16,76.4,58.1,41.1,53.6,44.7,34.8,94,64,38,29.86,29.60,16,2,27,0.06
2013-3-17,58.4,44.0,35.8,50.2,41.6,34.8,96,91,74,30.20,29.86,2,0,4,0.60
2013-3-18,35.9,33.8,32.0,34.9,32.7,30.7,97,96,95,30.21,29.88,4,0,6,0.30
2013-3-19,59.3,45.3,33.3,43.6,24.4,0.5,99,55,12,30.04,29.79,16,4,29,0.00
2013-3-20,53.4,42.9,30.7,26.9,13.1,3.6,60,31,18,30.07,29.78,12,2,25,0.00
2013-3-21,39.6,31.0,25.7,28.0,15.0,9.4,69,52,37,29.98,29.77,12,3,22,0.00
2013-3-22,50.0,34.2,23.7,19.7,13.6,9.3,60,44,25,30.04,29.93,9,2,18,0.00
2013-3-23,57.2,41.4,27.8,30.3,23.7,17.4,71,52,30,30.05,29.90,6,0,10,0.00
2013-3-24,40.8,34.7,31.3,32.4,28.8,23.0,95,80,49,29.96,29.59,2,0,6,0.01
2013-3-25,41.7,35.2,30.7,32.0,28.2,23.2,96,77,50,29.77,29.52,11,2,22,0.72
2013-3-26,44.5,38.8,35.5,29.5,26.7,24.9,69,62,49,30.10,29.77,9,2,20,0.15
2013-3-27,45.6,38.2,34.1,27.9,25.0,22.4,69,59,45,30.22,30.10,8,2,16,0.00
2013-3-28,50.9,41.5,35.7,28.6,25.1,21.3,74,53,38,30.28,30.19,9,2,14,0.00
2013-3-29,59.9,44.2,30.7,29.0,26.3,24.3,80,52,28,30.31,30.16,8,1,15,0.00
2013-3-30,65.6,47.8,30.5,34.4,30.3,26.8,87,55,27,30.26,30.07,6,0,9,0.00
2013-3-31,61.3,49.4,41.8,51.8,43.0,32.1,97,80,56,30.08,29.78,10,0,16,0.21
2013-4-1,61.1,52.8,41.7,45.7,39.4,28.0,72,61,46,30.03,29.84,13,3,23,0.00
2013-4-2,53.8,42.4,30.6,28.6,20.8,12.7,80,46,20,30.17,30.03,12,2,20,0.00
2013-4-3,56.5,43.7,30.9,22.3,16.5,12.2,60,35,19,30.34,30.17,8,1,13,0.00
2013-4-4,42.3,35.4,32.1,32.6,23.6,16.4,98,65,40,30.39,30.02,4,0,7,0.02
2013-4-5,63.7,46.4,33.1,45.0,35.0,30.7,99,71,31,30.05,29.91,7,1,14,0.49
2013-4-6,65.7,49.7,33.4,37.9,32.7,28.6,88,55,33,30.26,30.05,4,1,9,0.00
2013-4-7,72.8,57.1,40.9,47.5,39.7,28.4,80,54,35,30.23,30.05,10,1,18,0.00
2013-4-8,80.4,66.4,48.9,53.1,47.8,43.5,83,54,32,30.14,30.01,10,2,23,0.00
2013-4-9,87.1,72.9,54.9,56.0,52.7,48.8,81,51,30,30.18,30.04,9,2,20,0.00
2013-4-10,91.3,77.3,63.8,58.7,55.6,49.3,72,49,26,30.10,29.91,9,2,17,0.00
2013-4-11,85.9,75.8,65.5,61.5,57.2,50.2,72,53,35,29.95,29.74,8,2,20,0.00
2013-4-12,77.2,66.9,58.9,64.7,54.9,38.1,97,70,31,29.82,29.66,10,2,25,0.89
2013-4-13,74.8,61.5,52.0,40.2,35.6,30.9,58,40,23,30.02,29.81,10,2,17,0.00
2013-4-14,80.5,64.0,45.5,47.4,38.8,34.4,73,43,23,30.11,30.00,7,1,14,0.00
2013-4-15,66.3,56.7,52.2,55.2,52.6,41.9,97,87,44,30.27,30.07,7,0,15,0.38
2013-4-16,79.5,65.4,55.5,63.5,58.2,54.2,98,80,53,30.32,30.18,4,0,8,0.00
2013-4-17,82.8,68.2,59.6,63.3,59.7,56.8,91,76,49,30.24,30.14,4,0,6,0.00
2013-4-18,80.0,69.2,59.5,63.6,59.2,55.0,94,73,47,30.18,30.00,6,1,12,0.00
2013-4-19,70.9,65.4,50.5,65.1,58.8,38.7,92,79,65,30.00,29.67,15,3,26,0.84
2013-4-20,62.2,50.9,41.8,38.7,30.6,25.4,70,47,26,30.32,29.88,12,2,24,0.00
2013-4-21,61.1,47.6,34.8,36.8,33.1,29.2,85,59,37,30.52,30.32,4,0,7,0.00
2013-4-22,64.1,48.8,34.1,37.3,31.9,23.3,91,57,23,30.50,30.30,5,0,6,0.00
2013-4-23,73.3,57.5,46.8,50.7,44.3,37.1,78,63,43,30.33,30.10,4,0,8,0.00
2013-4-24,78.1,62.1,45.9,56.9,51.3,44.5,96,71,42,30.12,29.91,9,1,20,0.00
2013-4-25,69.4,54.5,40.0,45.8,31.4,14.0,75,47,12,30.33,30.08,8,1,14,0.00
2013-4-26,71.0,54.2,37.0,42.8,36.1,30.3,85,53,30,30.47,30.33,6,0,9,0.00
2013-4-27,69.7,57.8,48.9,51.8,45.5,40.8,83,65,43,30.38,30.26,4,0,10,0.00
2013-4-28,58.4,54.1,51.7,54.1,51.1,48.1,96,90,70,30.27,30.05,5,0,12,0.39
2013-4-29,70.0,56.9,50.5,60.0,53.9,49.8,98,90,69,30.13,30.00,4,0,7,0.09
2013-4-30,71.5,60.9,56.4,60.0,56.3,54.2,96,85,61,30.25,30.06,3,0,5,0.00
2013-5-1,72.3,59.7,55.0,55.9,53.5,47.6,96,81,53,30.39,30.25,2,0,5,0.00
2013-5-2,72.0,60.0,51.4,55.9,48.0,40.8,85,65,53,30.39,30.29,5,0,9,0.00
2013-5-3,66.0,56.1,48.1,51.9,48.1,43.1,95,76,57,30.35,30.23,3,0,6,0.00
2013-5-4,65.3,53.6,46.3,49.5,45.2,41.1,83,74,53,30.27,30.14,3,0,6,0.00
2013-5-5,54.9,51.5,44.5,51.2,44.3,34.2,95,77,62,30.17,30.04,3,0,6,0.13
2013-5-6,56.4,53.6,50.9,55.8,52.9,49.8,99,97,96,30.06,29.90,4,0,7,1.65
2013-5-7,64.1,55.6,50.4,57.8,54.5,49.9,99,96,73,29.97,29.90,3,0,6,1.01
2013-5-8,62.9,52.9,48.7,56.9,51.8,48.2,99,96,78,30.03,29.95,3,0,4,0.46
2013-5-9,80.3,62.9,46.0,59.2,52.6,45.7,100,73,40,30.08,30.00,6,1,14,0.01
2013-5-10,82.8,65.8,53.3,64.8,57.8,52.2,98,79,44,30.09,29.94,8,1,17,0.27
2013-5-11,79.4,65.8,59.4,65.4,60.2,55.4,99,84,54,29.97,29.80,8,1,14,0.09
2013-5-12,65.8,57.7,44.6,55.8,40.8,31.7,77,55,32,30.08,29.85,11,2,17,0.00
2013-5-13,62.7,50.5,38.6,39.1,33.8,27.3,88,57,30,30.21,30.08,9,1,20,0.00
2013-5-14,71.9,54.0,35.1,47.7,39.2,32.1,94,63,28,30.25,30.03,7,0,10,0.00
2013-5-15,91.1,71.5,49.2,60.6,54.4,46.4,91,60,31,30.05,29.89,8,1,18,0.00
2013-5-16,84.5,76.0,66.4,61.0,56.8,50.7,76,52,42,30.03,29.92,9,2,20,0.01
2013-5-17,86.1,69.6,59.7,64.7,60.6,56.6,95,75,43,30.16,30.02,4,0,7,0.05
2013-5-18,68.2,64.6,62.1,64.4,63.1,61.5,98,95,86,30.21,30.13,2,0,4,0.52
2013-5-19,69.4,64.9,62.5,68.4,64.4,62.2,100,98,93,30.18,30.08,3,0,4,1.02
2013-5-20,76.9,68.7,63.6,73.4,67.4,63.6,100,96,77,30.15,30.04,2,0,4,0.22
2013-5-21,90.3,74.9,64.9,72.2,67.6,64.9,100,81,47,30.08,29.95,6,0,9,0.00
2013-5-22,87.0,71.0,60.7,73.9,65.3,59.3,97,84,59,30.02,29.92,8,1,20,0.18
2013-5-23,83.8,69.2,62.3,70.4,64.0,59.0,99,86,50,29.97,29.82,7,0,15,0.06
2013-5-24,66.0,59.5,52.4,59.5,46.3,36.6,80,63,40,30.21,29.87,10,2,21,0.00
2013-5-25,71.8,56.8,46.6,39.3,32.9,23.4,65,43,22,30.29,30.19,8,1,14,0.00
2013-5-26,76.8,62.2,49.7,45.8,41.8,37.0,77,50,26,30.28,30.18,6,0,12,0.00
2013-5-27,80.5,63.9,49.6,61.1,50.7,42.3,84,64,41,30.32,30.17,5,0,8,0.00
2013-5-28,87.2,71.0,54.7,67.5,60.3,53.6,97,72,39,30.24,30.13,8,1,16,0.00
2013-5-29,90.5,78.2,62.2,69.1,63.4,58.1,95,63,36,30.24,30.16,5,1,9,0.00
2013-5-30,90.0,74.6,59.2,70.7,63.8,57.6,96,71,47,30.28,30.19,4,0,8,0.00
2013-5-31,88.7,73.9,59.7,70.2,63.8,58.3,96,73,50,30.24,30.12,8,1,14,0.00
2013-6-1,88.1,75.7,62.4,71.9,64.8,60.3,94,71,47,30.14,30.02,8,1,15,0.00
2013-6-2,76.8,72.2,66.8,70.5,66.8,62.7,98,84,66,30.04,29.94,6,0,10,1.25
2013-6-3,83.0,71.4,64.2,68.6,64.5,59.1,99,81,53,30.03,29.90,7,0,14,0.02
2013-6-4,81.8,68.2,55.7,65.8,60.1,54.3,97,77,46,30.16,30.03,4,0,10,0.00
2013-6-5,73.2,65.9,58.8,65.7,61.6,56.1,97,87,72,30.19,30.08,3,0,6,0.01
2013-6-6,65.4,63.1,60.5,64.5,62.4,59.9,99,98,96,30.08,29.86,2,0,4,2.20
2013-6-7,74.7,67.8,63.9,70.6,65.8,59.9,100,94,78,29.88,29.67,5,0,9,0.62
2013-6-8,87.2,70.6,60.1,67.7,62.5,57.8,98,78,43,30.14,29.86,4,0,6,0.13
2013-6-9,86.5,73.3,64.5,73.1,67.5,63.1,98,84,59,30.21,30.08,6,0,13,0.29
2013-6-10,82.1,71.2,64.0,72.1,68.5,63.1,99,92,69,30.12,29.88,8,0,15,0.39
2013-6-11,83.0,72.7,63.2,67.1,64.1,62.1,99,76,55,30.00,29.91,9,2,16,0.15
2013-6-12,92.0,78.2,63.7,74.2,68.8,62.3,96,75,52,30.01,29.91,6,1,12,0.00
2013-6-13,89.7,81.0,72.6,72.3,70.1,68.2,90,70,51,29.91,29.65,14,3,54,0.00
2013-6-16,84.8,72.6,58.3,71.1,64.0,56.9,97,76,51,30.11,30.02,5,1,11,0.59
2013-6-17,88.1,74.0,66.7,73.9,68.6,58.3,99,85,57,30.08,29.96,6,0,11,0.05
2013-6-18,76.0,69.3,63.6,71.1,66.9,61.8,99,92,74,30.00,29.87,3,0,6,0.36
2013-6-19,67.9,63.3,59.5,66.1,62.3,58.9,99,97,90,30.19,29.96,2,0,4,0.12
2013-6-20,81.8,70.8,63.7,70.2,66.2,63.1,99,87,65,30.30,30.19,4,0,7,0.00
2013-6-21,87.6,73.1,60.6,70.0,64.8,59.4,98,77,52,30.33,30.25,4,0,6,0.00
2013-6-22,88.4,72.8,58.2,69.6,63.5,55.6,92,75,46,30.32,30.18,3,0,5,0.00
2013-6-23,92.5,77.2,65.4,72.7,68.4,64.5,98,77,43,30.26,30.15,5,0,9,0.00
2013-6-24,87.5,74.4,66.1,76.6,70.1,65.2,98,87,61,30.24,30.13,4,0,9,0.41
2013-6-25,90.0,76.2,65.1,75.1,69.3,64.8,100,81,53,30.16,30.03,5,0,9,0.01
2013-6-26,94.3,73.1,65.5,74.5,68.5,64.6,99,87,49,30.05,29.94,15,0,22,0.23
2013-6-27,84.5,73.2,66.5,73.7,68.6,65.6,100,87,62,29.96,29.76,8,1,14,0.03
2013-6-28,89.8,79.2,68.6,72.5,68.0,63.6,95,70,45,29.79,29.59,10,2,17,0.00
2013-6-29,88.3,74.8,64.5,71.3,66.7,62.3,98,77,49,29.77,29.64,6,1,12,0.23
2013-6-30,87.9,73.6,65.8,74.8,69.5,65.3,99,89,61,29.90,29.75,4,0,9,0.39
2013-7-1,83.7,74.0,67.7,73.0,69.5,67.4,99,87,65,30.02,29.87,6,0,12,0.02
2013-7-2,76.0,71.7,69.2,72.0,69.5,67.8,98,93,82,30.21,30.01,4,0,9,2.00
2013-7-3,75.2,70.7,69.1,74.4,70.3,68.4,100,99,96,30.27,30.17,4,0,8,2.10
2013-7-4,88.9,74.5,69.2,77.1,71.8,68.9,100,92,63,30.31,30.23,4,0,8,0.95
2013-7-5,85.9,77.0,69.0,76.3,71.6,68.2,99,84,67,30.30,30.22,7,1,12,0.02
2013-7-6,89.7,77.4,67.8,74.5,70.6,67.2,99,81,55,30.28,30.17,6,0,10,0.03
2013-7-7,85.7,73.3,68.6,76.8,70.8,67.4,99,92,69,30.22,30.12,8,0,12,0.42
2013-7-8,91.8,75.7,65.8,74.1,69.1,65.7,100,82,50,30.23,30.14,4,0,8,0.01
2013-7-9,91.8,78.4,68.6,75.9,71.3,66.9,98,80,57,30.20,30.10,4,0,6,0.00
2013-7-10,89.5,74.2,69.2,78.6,71.4,68.2,99,92,67,30.13,30.00,6,0,9,2.16
2013-7-11,85.0,73.9,68.6,76.1,71.6,67.7,100,93,66,30.01,29.93,5,0,9,0.33
2013-7-12,78.7,70.3,66.5,69.0,67.0,65.5,99,90,69,30.12,29.95,2,0,4,0.03
2013-7-13,79.2,70.8,66.0,72.9,68.7,65.1,99,93,78,30.25,30.11,2,0,4,0.39
2013-7-14,88.3,76.3,69.9,75.7,71.6,69.3,99,87,61,30.38,30.25,3,0,7,0.08
2013-7-15,93.8,74.5,68.3,74.9,70.4,67.7,99,88,48,30.40,30.31,2,0,5,0.00
2013-7-16,98.3,78.4,66.4,76.7,70.6,65.5,98,80,41,30.36,30.26,4,0,7,0.03
2013-7-17,95.8,80.2,70.9,78.8,73.5,70.3,99,82,54,30.33,30.20,4,0,5,0.00
2013-7-18,97.0,80.8,69.4,78.6,73.5,68.8,99,80,50,30.24,30.11,4,0,6,0.00
2013-7-19,97.0,80.2,69.3,77.9,72.9,68.7,98,80,46,30.16,30.01,5,0,10,0.00
2013-7-20,94.1,79.8,71.3,77.2,72.5,69.9,96,80,49,30.05,29.94,6,0,9,0.00
2013-7-21,89.3,77.4,68.8,77.3,71.7,67.9,98,84,63,30.03,29.97,8,0,12,0.00
2013-7-22,91.5,77.0,70.3,76.4,71.9,69.2,98,86,53,30.02,29.85,8,0,14,0.33
2013-7-23,89.5,78.3,71.1,72.6,69.6,67.4,98,76,54,29.87,29.78,7,1,13,0.01
2013-7-24,88.3,78.1,70.1,71.3,67.7,64.5,92,72,49,29.96,29.79,7,1,12,0.00
2013-7-25,84.7,73.5,65.2,67.8,64.6,60.2,92,75,54,30.10,29.95,6,0,8,0.00
2013-7-26,85.7,72.0,62.0,71.5,65.6,59.9,96,81,60,30.16,30.06,3,0,6,0.00
2013-7-27,73.2,69.4,66.8,70.7,67.3,65.6,99,93,80,30.10,29.98,4,0,9,0.36
2013-7-28,87.5,73.6,65.8,73.3,67.5,64.8,99,83,55,30.06,29.96,3,0,5,0.00
2013-7-29,84.8,70.5,58.9,64.9,59.6,54.8,95,71,41,30.26,30.07,5,0,9,0.00
2013-7-30,86.0,69.5,55.9,67.2,60.5,53.9,94,75,47,30.31,30.20,5,0,7,0.00
2013-7-31,76.5,68.1,65.1,69.3,65.1,63.4,98,90,70,30.21,30.06,2,0,4,0.11
2013-8-1,86.8,73.3,65.0,71.8,67.4,64.1,99,84,56,30.06,29.91,4,0,9,0.01
2013-8-2,85.3,72.8,61.8,68.9,63.0,59.1,98,74,45,30.09,29.98,6,1,9,0.00
2013-8-3,87.8,72.5,62.5,69.2,63.9,59.3,92,76,48,30.07,29.98,5,0,8,0.00
2013-8-4,85.8,73.0,64.8,65.7,60.9,55.0,96,69,38,30.12,29.98,5,0,12,0.00
2013-8-5,80.8,69.8,58.9,65.7,60.6,55.2,89,74,53,30.16,30.05,5,0,7,0.00
2013-8-6,84.8,73.1,64.4,71.9,66.8,62.1,94,82,61,30.08,30.01,4,0,7,0.15
2013-8-7,81.6,72.6,68.3,72.4,68.7,66.5,95,88,71,30.12,30.06,6,0,10,0.01
2013-8-8,83.3,73.1,70.0,75.3,70.1,67.7,96,90,72,30.09,30.05,3,0,5,1.05
2013-8-9,91.0,77.5,69.2,78.0,71.7,68.2,97,84,56,30.07,30.00,6,0,12,0.08
2013-8-10,88.8,78.3,69.7,73.0,70.1,67.5,94,77,54,30.14,30.07,8,1,12,0.00
2013-8-11,89.9,76.2,69.3,75.6,69.9,67.5,96,82,55,30.17,30.07,5,0,9,0.33
2013-8-12,91.8,76.0,67.2,72.6,68.7,64.5,97,81,46,30.11,30.00,4,0,7,0.08
2013-8-13,82.5,72.3,68.0,72.9,68.1,62.9,96,87,66,30.01,29.85,3,0,8,0.49
2013-8-14,79.4,69.1,58.1,63.1,55.3,49.0,85,64,38,30.18,29.92,5,1,9,0.00
2013-8-15,78.5,63.8,52.4,58.5,53.3,48.6,90,71,45,30.23,30.13,5,0,6,0.00
2013-8-16,77.3,62.7,50.7,59.9,55.0,48.9,95,78,51,30.24,30.16,4,0,7,0.00
2013-8-17,70.6,61.2,54.8,61.0,57.2,53.1,95,87,62,30.28,30.22,2,0,4,0.42
2013-8-18,72.7,65.0,60.9,66.5,62.4,59.8,96,92,78,30.28,30.20,2,0,4,1.30
2013-8-19,76.9,68.0,63.3,70.3,65.3,61.9,96,91,78,30.25,30.12,2,0,4,0.15
2013-8-20,84.0,71.7,63.6,71.9,67.0,62.4,97,86,61,30.25,30.15,4,0,7,0.01
2013-8-21,85.5,73.1,65.1,74.9,68.8,63.8,96,87,68,30.27,30.15,4,0,6,0.19
2013-8-22,86.8,73.3,62.5,72.3,66.6,61.3,97,81,55,30.19,30.06,7,0,10,0.01
2013-8-23,87.5,72.0,63.4,70.3,66.1,61.2,95,83,54,30.19,30.00,4,0,8,0.00
2013-8-24,83.3,68.5,57.2,63.6,59.4,55.8,96,76,43,30.37,30.18,3,0,5,0.00
2013-8-25,83.5,67.6,56.4,62.9,58.1,54.3,95,75,41,30.45,30.33,4,0,7,0.00
2013-8-26,87.3,68.8,54.7,68.3,59.7,53.2,96,76,42,30.38,30.14,5,0,6,0.00
2013-8-27,85.0,74.2,62.1,71.3,66.3,60.1,95,77,57,30.14,30.01,6,1,12,0.00
2013-8-28,84.0,74.9,68.5,73.3,69.2,65.8,95,83,65,30.05,29.90,9,0,16,0.06
2013-8-29,89.3,78.2,69.8,74.3,70.2,66.9,94,77,55,30.09,29.90,4,0,8,0.06
2013-8-30,86.5,74.1,65.0,72.2,68.1,63.7,96,83,60,30.11,29.97,4,0,8,0.00
2013-8-31,89.7,73.2,65.6,73.4,68.0,63.8,96,85,54,30.00,29.90,5,0,10,0.49
2013-9-1,87.5,73.1,63.3,74.1,67.5,62.1,97,84,55,29.94,29.84,5,0,8,0.01
2013-9-2,87.8,75.5,64.9,73.8,67.3,63.4,96,78,52,29.94,29.84,5,1,9,0.00
2013-9-3,88.2,75.5,64.1,69.9,65.1,59.2,93,72,43,30.04,29.85,6,1,10,0.00
2013-9-4,86.0,68.8,55.7,66.8,59.4,53.8,96,74,46,30.15,30.04,5,0,8,0.00
2013-9-5,87.5,69.9,55.7,61.3,57.7,54.0,95,69,35,30.19,30.10,6,1,12,0.00
2013-9-6,81.2,66.5,58.9,60.9,58.5,55.0,94,77,47,30.26,30.17,4,0,10,0.00
2013-9-7,83.7,67.1,53.5,67.7,60.0,51.8,95,80,56,30.19,30.01,4,0,7,0.00
2013-9-8,87.0,71.4,58.6,71.6,63.3,56.3,93,77,51,30.06,29.96,5,0,7,0.00
2013-9-9,81.7,70.6,64.3,69.5,65.3,62.2,94,84,64,30.23,30.06,3,0,6,0.00
2013-9-10,91.3,73.3,63.4,75.8,68.0,61.9,96,85,51,30.27,30.19,3,0,6,0.28
2013-9-11,90.5,75.7,65.3,73.3,69.1,64.1,97,82,52,30.25,30.11,5,0,8,0.00
2013-9-12,88.2,75.3,66.8,72.0,67.9,62.6,95,79,55,30.11,29.87,6,1,10,0.02
2013-9-13,78.0,69.8,57.9,63.8,54.4,46.3,88,60,34,30.00,29.83,5,1,12,0.00
2013-9-14,77.3,60.5,48.3,55.2,49.0,45.4,92,69,36,30.19,29.99,5,0,8,0.00
2013-9-15,77.3,61.1,46.7,62.2,53.9,44.8,95,79,56,30.27,30.14,4,0,8,0.00
2013-9-16,78.0,64.2,56.0,62.6,57.5,52.7,96,80,54,30.28,30.14,6,0,9,0.00
2013-9-17,73.7,58.5,48.7,56.3,51.5,46.4,94,79,46,30.41,30.27,5,0,7,0.00
2013-9-18,70.5,57.7,47.5,57.5,52.1,45.8,94,82,62,30.35,30.21,4,0,7,0.00
2013-9-19,73.0,64.5,59.5,64.7,60.2,56.0,93,86,73,30.23,30.11,3,0,4,0.00
2013-9-20,70.2,65.1,62.2,66.8,63.4,60.8,99,94,89,30.12,29.99,2,0,4,0.69
2013-9-21,68.3,64.2,57.7,67.7,63.6,57.4,99,98,92,29.99,29.73,6,0,10,0.45
2013-9-22,75.7,61.6,52.7,60.4,55.4,51.9,100,82,51,29.97,29.79,4,0,6,0.01
2013-9-23,72.5,59.4,51.8,61.1,54.4,50.4,97,85,63,30.10,29.97,3,0,7,0.00
2013-9-24,78.5,62.1,52.9,64.3,57.2,52.3,98,86,59,30.13,29.96,3,0,5,0.00
2013-9-25,68.8,60.5,53.5,62.1,58.2,52.9,99,93,76,29.99,29.91,3,0,6,0.01
2013-9-26,77.2,64.5,57.2,61.3,58.2,54.5,99,82,51,30.10,29.94,3,0,5,0.01
2013-9-27,75.8,61.2,49.5,59.5,54.5,48.7,99,81,52,30.24,30.10,3,0,5,0.00
2013-9-28,69.3,60.1,52.7,57.5,55.2,51.2,96,85,63,30.31,30.23,3,0,4,0.00
2013-9-29,73.4,58.2,47.4,58.0,52.5,46.6,99,83,53,30.23,30.07,5,0,6,0.00
2013-9-30,78.5,62.1,50.7,62.6,55.6,49.6,97,81,49,30.12,30.01,4,0,5,0.00
2013-10-1,80.7,64.0,52.1,63.5,57.6,51.6,99,82,47,30.15,30.06,5,0,9,0.00
2013-10-2,84.0,65.8,52.4,64.8,58.6,51.8,99,80,47,30.17,30.08,6,0,10,0.00
2013-10-3,81.6,66.4,55.5,67.9,61.0,54.7,99,84,56,30.18,30.09,3,0,5,0.00
2013-10-4,86.4,68.6,56.2,69.2,62.6,55.6,100,83,50,30.17,30.09,4,0,5,0.00
2013-10-5,87.3,70.5,58.4,70.1,64.0,57.8,99,82,51,30.17,30.06,3,0,5,0.00
2013-10-6,83.2,69.6,58.5,68.2,63.0,57.9,99,82,55,30.08,29.92,8,1,15,0.00
2013-10-7,69.9,63.7,50.1,67.4,58.1,48.1,99,83,61,30.11,29.81,7,1,17,2.08
2013-10-8,69.4,55.4,46.4,53.2,47.6,44.6,95,77,49,30.28,30.10,3,0,6,0.00
2013-10-9,67.5,55.3,47.1,50.1,47.6,45.6,95,77,51,30.31,30.20,4,0,8,0.00
2013-10-10,66.3,56.9,49.6,61.3,54.5,45.6,98,92,74,30.20,30.01,4,0,6,0.23
2013-10-11,72.7,63.7,58.6,63.4,58.8,54.7,94,84,70,30.02,29.94,3,0,5,0.00
2013-10-12,67.2,62.0,58.8,62.9,60.0,57.1,98,93,85,30.15,30.01,3,0,4,0.06
2013-10-13,65.2,61.5,58.9,61.9,60.2,58.6,99,96,88,30.29,30.15,3,0,4,0.12
2013-10-14,71.5,60.3,56.1,63.3,58.5,55.1,99,94,74,30.32,30.21,3,0,4,0.41
2013-10-15,71.3,57.9,49.8,58.1,53.9,49.5,100,88,58,30.27,30.11,4,0,4,0.00
2013-10-16,71.4,59.6,49.9,61.9,56.3,49.4,99,89,69,30.12,29.96,3,0,5,0.00
2013-10-17,66.7,61.6,57.9,64.3,59.6,52.6,99,94,79,29.98,29.81,7,0,12,0.07
2013-10-18,68.0,56.3,48.5,52.6,46.7,41.7,96,71,47,30.07,29.94,5,1,9,0.00
2013-10-19,63.0,53.7,47.0,57.8,50.5,45.0,98,89,70,30.01,29.82,8,0,13,0.00
2013-10-20,66.6,50.7,38.2,45.3,39.7,35.4,94,68,41,30.12,29.94,6,0,12,0.00
2013-10-21,67.9,49.9,35.1,52.8,44.2,34.3,99,83,55,30.16,29.98,3,0,6,0.00
2013-10-22,66.1,55.3,47.8,50.6,48.6,46.8,97,80,54,29.98,29.82,6,0,12,0.00
2013-10-23,57.6,49.2,42.0,49.9,42.2,31.0,99,78,51,29.99,29.71,10,2,20,0.06
2013-10-24,48.4,41.9,34.0,34.1,32.2,30.0,89,69,54,30.18,29.99,9,1,15,0.00
2013-10-25,49.1,39.6,32.2,31.4,29.0,26.7,87,67,45,30.35,30.18,5,1,9,0.00
2013-10-26,59.7,41.9,25.0,35.7,29.2,23.8,96,66,29,30.34,30.01,9,1,16,0.00
2013-10-27,67.2,53.1,42.0,41.9,38.8,33.8,88,60,38,30.12,30.02,8,1,13,0.00
2013-10-28,64.8,50.1,37.8,53.2,45.5,36.6,98,85,59,30.27,30.12,2,0,4,0.00
2013-10-29,69.2,58.3,50.7,55.2,52.2,49.8,98,82,55,30.36,30.26,4,0,9,0.00
2013-10-30,72.8,59.8,52.4,61.4,55.4,50.8,98,86,63,30.30,30.15,8,0,12,0.08
2013-10-31,69.6,61.8,55.7,60.6,57.3,55.1,99,86,63,30.19,29.80,8,1,17,0.00
2013-11-1,76.5,67.8,56.1,61.7,56.8,44.2,92,69,41,29.80,29.63,14,2,32,0.03
2013-11-2,64.7,57.7,50.2,47.5,40.2,32.6,74,53,35,29.96,29.71,10,2,17,0.00
2013-11-3,58.2,49.0,36.0,37.3,35.2,32.4,87,60,40,30.40,29.97,5,1,12,0.00
2013-11-4,52.2,40.6,29.6,33.6,30.5,28.1,95,69,46,30.57,30.39,4,0,6,0.00
2013-11-5,52.2,43.8,33.4,43.1,34.5,27.9,84,70,55,30.60,30.46,2,0,4,0.00
2013-11-6,70.2,54.4,45.4,52.7,47.6,42.9,95,80,53,30.46,30.10,4,0,8,0.00
2013-11-7,59.6,49.5,41.8,53.8,41.5,27.3,98,76,51,30.15,29.97,12,2,18,0.00
2013-11-8,50.8,41.5,30.1,29.1,26.6,24.8,82,56,37,30.32,30.15,9,1,16,0.00
2013-11-9,57.2,41.1,26.8,32.3,28.3,24.5,92,64,37,30.34,30.11,5,0,8,0.00
2013-11-10,63.7,53.8,38.9,37.3,30.7,24.6,61,43,23,30.28,30.06,13,3,29,0.00
2013-11-11,59.6,44.8,34.3,32.6,28.2,25.5,73,53,32,30.28,30.08,2,0,8,0.00
2013-11-12,56.7,42.7,28.9,38.1,25.1,15.4,65,51,29,30.44,30.00,9,2,16,0.00
2013-11-13,45.1,33.8,25.9,19.4,16.1,14.0,70,50,30,30.51,30.41,7,1,12,0.00
2013-11-14,61.5,38.9,21.9,24.2,19.1,15.0,83,52,18,30.42,30.26,6,1,10,0.00
2013-11-15,61.7,43.8,27.3,49.0,32.4,21.3,98,68,30,30.30,30.17,4,0,5,0.42
2013-11-16,52.8,50.5,47.8,52.2,49.8,47.3,99,97,93,30.29,30.21,2,0,2,0.07
2013-11-17,61.1,55.9,52.5,59.3,54.8,52.1,100,96,90,30.23,29.81,5,1,10,0.09
2013-11-18,64.3,57.8,48.0,59.9,38.8,26.4,98,52,28,30.01,29.77,13,3,26,0.11
2013-11-19,51.1,42.2,32.8,29.4,27.4,25.0,82,57,40,30.32,30.00,9,1,20,0.00
2013-11-20,48.2,37.4,31.2,29.7,27.1,24.5,88,68,43,30.48,30.32,4,0,5,0.00
2013-11-21,51.9,43.9,37.1,42.3,36.8,28.3,82,76,68,30.52,30.39,2,0,4,0.00
2013-11-22,65.3,55.6,45.1,56.5,49.1,41.1,88,79,65,30.40,30.08,4,0,8,0.00
2013-11-23,59.2,47.2,32.2,52.0,32.4,13.7,78,58,28,30.23,30.08,11,3,18,0.00
2013-11-24,32.6,26.4,21.0,18.3,6.3,1.1,59,43,27,30.50,30.23,8,2,15,0.00
2013-11-25,36.6,27.6,17.2,17.5,11.9,7.2,75,53,36,30.50,30.32,3,0,7,0.00
2013-11-26,39.2,33.5,30.6,38.7,31.4,16.4,99,93,49,30.33,29.61,8,0,14,3.05
2013-11-27,44.8,34.1,25.5,42.5,26.8,12.8,99,75,57,30.13,29.56,11,3,20,0.04
2013-11-28,43.7,29.7,24.2,25.3,17.8,12.9,86,62,41,30.42,30.13,8,1,15,0.00
2013-11-29,47.9,33.0,22.8,26.3,22.6,18.8,89,67,41,30.65,30.42,4,0,6,0.00
2013-11-30,41.6,29.2,20.8,26.7,22.5,18.5,92,77,53,30.65,30.34,3,0,6,0.00
2013-12-1,57.1,35.0,20.0,32.0,25.1,18.6,95,72,31,30.34,30.01,8,0,13,0.00
2013-12-2,52.9,40.2,28.5,39.0,33.6,26.8,96,78,58,30.01,29.82,1,0,2,0.00
2013-12-4,55.9,55.6,55.3,52.9,52.7,52.3,91,90,88,30.06,30.04,2,0,10,0.00
2013-12-5,66.5,56.6,46.2,60.9,54.5,45.3,99,93,79,30.09,29.97,4,0,6,0.03
2013-12-6,72.9,65.4,51.2,68.0,61.6,49.0,100,88,74,30.06,29.88,9,1,17,0.63
2013-12-7,50.8,42.3,38.2,49.1,36.6,31.4,97,80,70,30.47,30.06,7,1,13,0.07
2013-12-8,38.1,31.2,28.1,34.0,28.4,24.6,97,89,72,30.47,30.23,2,0,4,0.05
2013-12-9,51.1,38.6,31.1,47.3,36.5,30.2,99,92,78,30.24,30.02,7,0,12,0.07
2013-12-10,41.3,36.7,31.5,39.1,30.9,19.2,98,81,59,30.26,29.95,11,1,20,0.43
2013-12-11,49.9,36.0,27.5,25.8,20.2,15.4,73,54,33,30.38,30.23,9,1,14,0.00
2013-12-12,37.2,31.8,27.6,20.7,13.2,5.9,63,47,30,30.39,30.26,9,2,16,0.00
2013-12-13,49.4,37.3,30.1,26.9,17.6,11.4,73,46,31,30.32,30.21,10,2,17,0.00
2013-12-14,36.7,34.8,33.9,34.2,32.5,24.8,98,91,66,30.28,29.73,4,0,5,0.34
2013-12-15,44.2,37.9,33.9,40.6,31.1,25.6,99,77,63,30.02,29.68,10,3,21,0.00
2013-12-16,49.0,38.5,31.9,33.1,29.6,25.7,90,71,52,30.12,30.00,7,1,13,0.00
2013-12-17,55.3,40.8,28.5,37.5,31.8,24.7,95,73,45,30.08,29.88,12,2,25,0.08
2013-12-18,45.5,35.0,27.5,24.7,20.2,15.4,78,56,32,30.23,29.96,12,2,24,0.00
2013-12-19,67.5,44.8,26.6,32.5,26.1,20.1,82,53,23,30.22,30.13,9,1,13,0.00
2013-12-20,61.6,48.0,38.2,39.6,33.6,27.6,77,59,37,30.16,30.05,4,0,8,0.00
2013-12-21,68.8,55.9,40.7,61.4,49.3,36.6,88,79,66,30.08,29.94,10,1,20,0.00
2013-12-22,69.2,61.9,57.0,63.0,58.9,54.3,99,90,70,30.07,29.92,10,1,20,0.64
2013-12-23,61.7,50.6,35.1,60.4,45.7,27.0,100,84,68,30.22,29.97,8,2,14,0.76
2013-12-24,37.9,31.1,21.5,27.3,19.6,8.7,81,63,46,30.44,30.19,12,2,20,0.00
2013-12-25,36.8,24.6,14.5,16.3,12.5,9.6,89,62,35,30.50,30.32,3,0,6,0.00
2013-12-26,46.9,32.0,19.2,26.8,20.2,15.2,86,64,39,30.37,30.22,10,1,18,0.00
2013-12-27,52.4,33.7,22.2,25.3,21.7,19.3,90,66,29,30.44,30.32,5,0,8,0.00
2013-12-28,55.5,38.0,23.4,38.3,26.8,20.5,93,67,32,30.37,30.15,4,0,6,0.06
2013-12-29,52.3,43.6,38.6,45.7,40.3,37.8,98,89,72,30.15,29.67,12,1,22,1.15
2013-12-30,45.9,41.6,35.9,37.4,32.9,27.2,75,71,68,30.13,29.89,13,2,21,0.00
2013-12-31,44.5,36.9,27.4,29.0,21.8,17.4,76,55,35,30.32,30.09,14,2,26,0.00
2014-1-1,50.2,34.1,22.8,29.2,23.5,19.6,91,68,37,30.35,30.09,4,0,10,0.00
2014-1-2,39.4,33.1,26.5,36.2,29.3,21.3,97,86,65,30.09,29.60,9,1,18,0.12